sensor_id;sensor_type;location;lat;lon;timestamp;pressure;altitude;pressure_sealevel;temperature;humidity
80837;BME280;70251;60.008;30.404;2023-08-17T00:01:40;101187.13;;;25.39;62.67
80837;BME280;70251;60.008;30.404;2023-08-17T00:04:06;101160.22;;;25.36;63.25
80837;BME280;70251;60.008;30.404;2023-08-17T00:06:32;101158.94;;;25.39;63.24
80837;BME280;70251;60.008;30.404;2023-08-17T00:08:57;101179.75;;;25.47;62.89
80837;BME280;70251;60.008;30.404;2023-08-17T00:11:23;101176.78;;;25.48;62.99
80837;BME280;70251;60.008;30.404;2023-08-17T00:13:49;101212.69;;;25.52;62.97
80837;BME280;70251;60.008;30.404;2023-08-17T00:16:14;101209.97;;;25.52;63.39
80837;BME280;70251;60.008;30.404;2023-08-17T00:18:40;101199.47;;;25.55;63.21
80837;BME280;70251;60.008;30.404;2023-08-17T00:21:05;101215.34;;;25.65;63.25
80837;BME280;70251;60.008;30.404;2023-08-17T00:23:31;101238.97;;;25.59;63.31
80837;BME280;70251;60.008;30.404;2023-08-17T00:25:56;101171.25;;;25.61;63.20
80837;BME280;70251;60.008;30.404;2023-08-17T00:28:22;101179.44;;;25.61;63.34
80837;BME280;70251;60.008;30.404;2023-08-17T00:30:47;101193.94;;;25.62;63.34
80837;BME280;70251;60.008;30.404;2023-08-17T00:33:13;101173.75;;;25.63;63.27
80837;BME280;70251;60.008;30.404;2023-08-17T00:35:38;101174.13;;;25.66;62.98
80837;BME280;70251;60.008;30.404;2023-08-17T00:38:04;101187.13;;;25.71;63.07
80837;BME280;70251;60.008;30.404;2023-08-17T00:40:30;101183.97;;;25.74;63.18
80837;BME280;70251;60.008;30.404;2023-08-17T00:42:55;101183.72;;;25.75;63.24
80837;BME280;70251;60.008;30.404;2023-08-17T00:45:22;101179.97;;;25.76;62.89
80837;BME280;70251;60.008;30.404;2023-08-17T00:47:47;101183.97;;;25.74;63.46
80837;BME280;70251;60.008;30.404;2023-08-17T00:50:13;101182.50;;;25.71;63.18
80837;BME280;70251;60.008;30.404;2023-08-17T00:52:40;101170.72;;;25.71;63.25
80837;BME280;70251;60.008;30.404;2023-08-17T00:55:07;101197.72;;;25.61;63.25
80837;BME280;70251;60.008;30.404;2023-08-17T00:57:33;101328.63;;;25.24;64.69
80837;BME280;70251;60.008;30.404;2023-08-17T00:59:59;101320.56;;;24.85;65.24
80837;BME280;70251;60.008;30.404;2023-08-17T01:02:25;101300.16;;;24.88;64.73
80837;BME280;70251;60.008;30.404;2023-08-17T01:04:53;101307.94;;;24.84;64.86
80837;BME280;70251;60.008;30.404;2023-08-17T01:07:18;101302.25;;;24.92;64.14
80837;BME280;70251;60.008;30.404;2023-08-17T01:09:44;101314.00;;;24.99;63.65
80837;BME280;70251;60.008;30.404;2023-08-17T01:12:13;101313.75;;;25.07;63.13
80837;BME280;70251;60.008;30.404;2023-08-17T01:17:27;101306.41;;;25.14;62.76
80837;BME280;70251;60.008;30.404;2023-08-17T01:19:55;101305.94;;;25.17;62.56
80837;BME280;70251;60.008;30.404;2023-08-17T01:22:24;101309.31;;;25.19;61.96
80837;BME280;70251;60.008;30.404;2023-08-17T01:24:49;101290.84;;;25.15;62.22
80837;BME280;70251;60.008;30.404;2023-08-17T01:27:15;101300.50;;;25.11;62.28
80837;BME280;70251;60.008;30.404;2023-08-17T01:29:41;101291.06;;;25.07;62.63
80837;BME280;70251;60.008;30.404;2023-08-17T01:32:16;101280.38;;;25.05;62.16
80837;BME280;70251;60.008;30.404;2023-08-17T01:34:50;101288.78;;;25.04;62.48
80837;BME280;70251;60.008;30.404;2023-08-17T01:37:20;101286.25;;;25.02;62.69
80837;BME280;70251;60.008;30.404;2023-08-17T01:39:50;101281.84;;;25.01;62.40
80837;BME280;70251;60.008;30.404;2023-08-17T01:42:17;101276.81;;;24.98;62.60
80837;BME280;70251;60.008;30.404;2023-08-17T01:44:44;101276.81;;;24.98;62.58
80837;BME280;70251;60.008;30.404;2023-08-17T01:47:11;101293.19;;;24.98;62.34
80837;BME280;70251;60.008;30.404;2023-08-17T01:49:36;101317.16;;;24.96;62.70
80837;BME280;70251;60.008;30.404;2023-08-17T01:52:02;101306.47;;;24.88;62.84
80837;BME280;70251;60.008;30.404;2023-08-17T01:54:28;101300.16;;;24.88;62.91
80837;BME280;70251;60.008;30.404;2023-08-17T01:56:53;101305.63;;;24.88;62.80
80837;BME280;70251;60.008;30.404;2023-08-17T01:59:19;101301.84;;;24.89;63.02
80837;BME280;70251;60.008;30.404;2023-08-17T02:01:44;101304.81;;;24.87;62.72
80837;BME280;70251;60.008;30.404;2023-08-17T02:04:10;101299.75;;;24.84;62.66
80837;BME280;70251;60.008;30.404;2023-08-17T02:06:35;101291.97;;;24.81;62.48
80837;BME280;70251;60.008;30.404;2023-08-17T02:09:01;101287.19;;;24.77;62.31
80837;BME280;70251;60.008;30.404;2023-08-17T02:11:27;101282.53;;;24.71;62.90
80837;BME280;70251;60.008;30.404;2023-08-17T02:13:52;101287.34;;;24.68;62.60
80837;BME280;70251;60.008;30.404;2023-08-17T02:16:18;101288.59;;;24.66;63.00
80837;BME280;70251;60.008;30.404;2023-08-17T02:18:45;101277.69;;;24.66;62.86
80837;BME280;70251;60.008;30.404;2023-08-17T02:21:10;101276.66;;;24.67;63.03
80837;BME280;70251;60.008;30.404;2023-08-17T02:23:36;101273.50;;;24.70;63.09
80837;BME280;70251;60.008;30.404;2023-08-17T02:26:01;101269.50;;;24.73;63.04
80837;BME280;70251;60.008;30.404;2023-08-17T02:28:27;101267.00;;;24.71;62.91
80837;BME280;70251;60.008;30.404;2023-08-17T02:30:56;101268.69;;;24.72;63.03
80837;BME280;70251;60.008;30.404;2023-08-17T02:33:22;101255.47;;;24.62;62.70
80837;BME280;70251;60.008;30.404;2023-08-17T02:35:51;101261.56;;;24.58;63.21
80837;BME280;70251;60.008;30.404;2023-08-17T02:38:17;101271.22;;;24.54;63.10
80837;BME280;70251;60.008;30.404;2023-08-17T02:40:43;101257.81;;;24.46;63.21
80837;BME280;70251;60.008;30.404;2023-08-17T02:43:08;101276.50;;;24.49;63.26
80837;BME280;70251;60.008;30.404;2023-08-17T02:45:34;101280.03;;;24.49;63.24
80837;BME280;70251;60.008;30.404;2023-08-17T02:48:00;101289.47;;;24.47;62.75
80837;BME280;70251;60.008;30.404;2023-08-17T02:50:25;101281.72;;;24.44;63.04
80837;BME280;70251;60.008;30.404;2023-08-17T02:52:51;101271.44;;;24.39;63.12
80837;BME280;70251;60.008;30.404;2023-08-17T02:55:16;101278.78;;;24.45;63.08
80837;BME280;70251;60.008;30.404;2023-08-17T02:57:42;101257.81;;;24.46;62.71
80837;BME280;70251;60.008;30.404;2023-08-17T03:00:08;101247.28;;;24.43;62.83
80837;BME280;70251;60.008;30.404;2023-08-17T03:02:34;101232.63;;;24.37;63.06
80837;BME280;70251;60.008;30.404;2023-08-17T03:04:59;101238.50;;;24.28;63.41
80837;BME280;70251;60.008;30.404;2023-08-17T03:07:25;101234.50;;;24.24;63.80
80837;BME280;70251;60.008;30.404;2023-08-17T03:09:50;101243.97;;;24.21;63.76
80837;BME280;70251;60.008;30.404;2023-08-17T03:12:16;101244.19;;;24.20;63.83
80837;BME280;70251;60.008;30.404;2023-08-17T03:14:41;101241.88;;;24.17;63.90
80837;BME280;70251;60.008;30.404;2023-08-17T03:17:07;101250.06;;;24.17;63.91
80837;BME280;70251;60.008;30.404;2023-08-17T03:19:32;101253.19;;;24.14;63.62
80837;BME280;70251;60.008;30.404;2023-08-17T03:21:58;101257.41;;;24.16;63.89
80837;BME280;70251;60.008;30.404;2023-08-17T03:24:24;101253.59;;;24.17;63.79
80837;BME280;70251;60.008;30.404;2023-08-17T03:26:49;101257.19;;;24.18;63.78
80837;BME280;70251;60.008;30.404;2023-08-17T03:29:14;101251.94;;;24.10;63.77
80837;BME280;70251;60.008;30.404;2023-08-17T03:31:40;101267.06;;;24.12;63.90
80837;BME280;70251;60.008;30.404;2023-08-17T03:34:06;101260.75;;;24.12;64.15
80837;BME280;70251;60.008;30.404;2023-08-17T03:36:31;101262.00;;;24.09;64.06
80837;BME280;70251;60.008;30.404;2023-08-17T03:38:56;101262.84;;;24.10;64.12
80837;BME280;70251;60.008;30.404;2023-08-17T03:41:22;101272.69;;;24.11;63.88
80837;BME280;70251;60.008;30.404;2023-08-17T03:43:50;101275.00;;;24.07;64.16
80837;BME280;70251;60.008;30.404;2023-08-17T03:46:16;101282.34;;;24.07;64.23
80837;BME280;70251;60.008;30.404;2023-08-17T03:48:42;101285.91;;;24.07;64.20
80837;BME280;70251;60.008;30.404;2023-08-17T03:51:07;101284.44;;;24.11;64.37
80837;BME280;70251;60.008;30.404;2023-08-17T03:53:33;101281.94;;;24.16;64.20
80837;BME280;70251;60.008;30.404;2023-08-17T03:55:58;101286.56;;;24.22;64.01
80837;BME280;70251;60.008;30.404;2023-08-17T03:58:24;101297.88;;;24.26;64.10
80837;BME280;70251;60.008;30.404;2023-08-17T04:00:52;101302.53;;;24.32;63.94
80837;BME280;70251;60.008;30.404;2023-08-17T04:03:19;101304.41;;;24.38;64.07
80837;BME280;70251;60.008;30.404;2023-08-17T04:05:45;101305.44;;;24.43;63.79
80837;BME280;70251;60.008;30.404;2023-08-17T04:08:10;101301.88;;;24.49;63.97
80837;BME280;70251;60.008;30.404;2023-08-17T04:10:36;101293.91;;;24.54;63.66
80837;BME280;70251;60.008;30.404;2023-08-17T04:13:02;101308.16;;;24.63;63.64
80837;BME280;70251;60.008;30.404;2023-08-17T04:15:28;101310.25;;;24.67;63.51
80837;BME280;70251;60.008;30.404;2023-08-17T04:17:53;101325.16;;;24.72;63.33
80837;BME280;70251;60.008;30.404;2023-08-17T04:20:19;101316.34;;;24.70;63.53
80837;BME280;70251;60.008;30.404;2023-08-17T04:22:44;101329.38;;;24.67;63.30
80837;BME280;70251;60.008;30.404;2023-08-17T04:25:10;101333.56;;;24.57;63.55
80837;BME280;70251;60.008;30.404;2023-08-17T04:27:36;101333.13;;;24.47;63.60
80837;BME280;70251;60.008;30.404;2023-08-17T04:30:01;101333.56;;;24.44;63.45
80837;BME280;70251;60.008;30.404;2023-08-17T04:32:30;101331.88;;;24.43;63.47
80837;BME280;70251;60.008;30.404;2023-08-17T04:34:55;101330.41;;;24.47;63.68
80837;BME280;70251;60.008;30.404;2023-08-17T04:37:21;101341.31;;;24.47;63.36
80837;BME280;70251;60.008;30.404;2023-08-17T04:39:47;101356.44;;;24.49;63.19
80837;BME280;70251;60.008;30.404;2023-08-17T04:42:14;101361.47;;;24.46;63.28
80837;BME280;70251;60.008;30.404;2023-08-17T04:44:40;101357.28;;;24.43;63.06
80837;BME280;70251;60.008;30.404;2023-08-17T04:47:05;101340.50;;;24.46;62.88
80837;BME280;70251;60.008;30.404;2023-08-17T04:49:31;101340.06;;;24.49;63.24
80837;BME280;70251;60.008;30.404;2023-08-17T04:51:56;101332.09;;;24.54;62.74
80837;BME280;70251;60.008;30.404;2023-08-17T04:54:22;101344.69;;;24.62;62.75
80837;BME280;70251;60.008;30.404;2023-08-17T04:56:47;101340.47;;;24.66;62.80
80837;BME280;70251;60.008;30.404;2023-08-17T04:59:13;101344.03;;;24.73;62.72
80837;BME280;70251;60.008;30.404;2023-08-17T05:01:38;101343.03;;;24.74;62.71
80837;BME280;70251;60.008;30.404;2023-08-17T05:04:04;101351.81;;;24.70;63.01
80837;BME280;70251;60.008;30.404;2023-08-17T05:06:30;101346.78;;;24.66;62.42
80837;BME280;70251;60.008;30.404;2023-08-17T05:08:56;101352.44;;;24.65;63.00
80837;BME280;70251;60.008;30.404;2023-08-17T05:11:22;101347.22;;;24.63;62.50
80837;BME280;70251;60.008;30.404;2023-08-17T05:13:47;101347.41;;;24.62;62.89
80837;BME280;70251;60.008;30.404;2023-08-17T05:16:13;101350.97;;;24.56;62.77
80837;BME280;70251;60.008;30.404;2023-08-17T05:18:38;101357.69;;;24.60;62.64
80837;BME280;70251;60.008;30.404;2023-08-17T05:21:04;101363.16;;;24.60;62.90
80837;BME280;70251;60.008;30.404;2023-08-17T05:23:29;101358.53;;;24.54;63.07
80837;BME280;70251;60.008;30.404;2023-08-17T05:25:55;101365.06;;;24.53;63.06
80837;BME280;70251;60.008;30.404;2023-08-17T05:28:20;101371.56;;;24.52;62.92
80837;BME280;70251;60.008;30.404;2023-08-17T05:30:46;101370.28;;;24.48;63.42
80837;BME280;70251;60.008;30.404;2023-08-17T05:33:11;101377.00;;;24.52;62.97
80837;BME280;70251;60.008;30.404;2023-08-17T05:35:37;101370.31;;;24.54;62.92
80837;BME280;70251;60.008;30.404;2023-08-17T05:38:03;101377.66;;;24.60;63.14
80837;BME280;70251;60.008;30.404;2023-08-17T05:40:30;101384.81;;;24.68;62.83
80837;BME280;70251;60.008;30.404;2023-08-17T05:42:56;101388.16;;;24.70;62.69
80837;BME280;70251;60.008;30.404;2023-08-17T05:45:21;101375.53;;;24.69;62.09
80837;BME280;70251;60.008;30.404;2023-08-17T05:47:47;101387.34;;;24.76;62.37
80837;BME280;70251;60.008;30.404;2023-08-17T05:50:13;101382.06;;;24.75;62.30
80837;BME280;70251;60.008;30.404;2023-08-17T05:52:38;101381.25;;;24.74;62.15
80837;BME280;70251;60.008;30.404;2023-08-17T05:55:07;101380.81;;;24.77;62.19
80837;BME280;70251;60.008;30.404;2023-08-17T05:57:33;101369.47;;;24.87;62.10
80837;BME280;70251;60.008;30.404;2023-08-17T05:59:58;101384.59;;;24.96;61.60
80837;BME280;70251;60.008;30.404;2023-08-17T06:02:24;101380.78;;;25.03;61.43
80837;BME280;70251;60.008;30.404;2023-08-17T06:04:49;101386.25;;;25.10;61.92
80837;BME280;70251;60.008;30.404;2023-08-17T06:07:15;101390.63;;;25.17;61.39
80837;BME280;70251;60.008;30.404;2023-08-17T06:09:40;101389.81;;;25.23;61.03
80837;BME280;70251;60.008;30.404;2023-08-17T06:12:06;101395.44;;;25.28;61.33
80837;BME280;70251;60.008;30.404;2023-08-17T06:14:34;101389.56;;;25.31;60.98
80837;BME280;70251;60.008;30.404;2023-08-17T06:17:00;101393.34;;;25.30;60.88
80837;BME280;70251;60.008;30.404;2023-08-17T06:19:26;101404.25;;;25.30;60.73
80837;BME280;70251;60.008;30.404;2023-08-17T06:21:51;101409.09;;;25.28;60.44
80837;BME280;70251;60.008;30.404;2023-08-17T06:24:17;101409.75;;;25.24;61.07
80837;BME280;70251;60.008;30.404;2023-08-17T06:26:44;101401.78;;;25.22;60.73
80837;BME280;70251;60.008;30.404;2023-08-17T06:29:09;101400.72;;;25.23;60.44
80837;BME280;70251;60.008;30.404;2023-08-17T06:31:35;101404.50;;;25.29;60.43
80837;BME280;70251;60.008;30.404;2023-08-17T06:34:00;101408.06;;;25.29;60.20
80837;BME280;70251;60.008;30.404;2023-08-17T06:36:29;101412.69;;;25.29;60.21
80837;BME280;70251;60.008;30.404;2023-08-17T06:38:54;101409.09;;;25.28;59.88
80837;BME280;70251;60.008;30.404;2023-08-17T06:41:20;101416.06;;;25.24;60.01
80837;BME280;70251;60.008;30.404;2023-08-17T06:43:45;101423.41;;;25.24;59.53
80837;BME280;70251;60.008;30.404;2023-08-17T06:46:11;101411.00;;;25.21;60.05
80837;BME280;70251;60.008;30.404;2023-08-17T06:48:37;101411.84;;;25.22;60.03
80837;BME280;70251;60.008;30.404;2023-08-17T06:51:02;101416.28;;;25.23;59.70
80837;BME280;70251;60.008;30.404;2023-08-17T06:53:30;101413.72;;;25.28;59.98
80837;BME280;70251;60.008;30.404;2023-08-17T06:55:55;101411.00;;;25.28;60.19
80837;BME280;70251;60.008;30.404;2023-08-17T06:58:21;101410.56;;;25.31;60.13
80837;BME280;70251;60.008;30.404;2023-08-17T07:00:46;101407.59;;;25.39;60.09
80837;BME280;70251;60.008;30.404;2023-08-17T07:03:12;101403.22;;;25.45;59.93
80837;BME280;70251;60.008;30.404;2023-08-17T07:05:38;101414.75;;;25.53;60.20
80837;BME280;70251;60.008;30.404;2023-08-17T07:08:03;101421.25;;;25.59;60.05
80837;BME280;70251;60.008;30.404;2023-08-17T07:10:29;101409.06;;;25.61;59.73
80837;BME280;70251;60.008;30.404;2023-08-17T07:12:55;101422.25;;;25.71;59.75
80837;BME280;70251;60.008;30.404;2023-08-17T07:15:20;101426.44;;;25.73;59.54
80837;BME280;70251;60.008;30.404;2023-08-17T07:17:46;101418.72;;;25.64;60.08
80837;BME280;70251;60.008;30.404;2023-08-17T07:20:11;101427.56;;;25.59;60.18
80837;BME280;70251;60.008;30.404;2023-08-17T07:22:37;101423.38;;;25.57;59.78
80837;BME280;70251;60.008;30.404;2023-08-17T07:25:08;101439.13;;;25.61;59.98
80837;BME280;70251;60.008;30.404;2023-08-17T07:27:34;101432.81;;;25.61;59.60
80837;BME280;70251;60.008;30.404;2023-08-17T07:29:59;101450.03;;;25.68;59.61
80837;BME280;70251;60.008;30.404;2023-08-17T07:32:25;101443.50;;;25.62;59.38
80837;BME280;70251;60.008;30.404;2023-08-17T07:34:51;101456.78;;;25.59;59.10
80837;BME280;70251;60.008;30.404;2023-08-17T07:37:19;101453.81;;;25.60;59.25
80837;BME280;70251;60.008;30.404;2023-08-17T07:39:45;101452.16;;;25.66;59.42
80837;BME280;70251;60.008;30.404;2023-08-17T07:42:11;101455.31;;;25.63;59.39
80837;BME280;70251;60.008;30.404;2023-08-17T07:44:36;101446.69;;;25.66;59.71
80837;BME280;70251;60.008;30.404;2023-08-17T07:47:04;101448.75;;;25.77;59.59
80837;BME280;70251;60.008;30.404;2023-08-17T07:49:30;101461.09;;;25.92;59.67
80837;BME280;70251;60.008;30.404;2023-08-17T07:51:55;101450.56;;;25.96;59.32
80837;BME280;70251;60.008;30.404;2023-08-17T07:54:21;101454.31;;;26.01;59.35
80837;BME280;70251;60.008;30.404;2023-08-17T07:56:46;101462.31;;;26.09;58.96
80837;BME280;70251;60.008;30.404;2023-08-17T07:59:12;101465.03;;;26.03;59.37
80837;BME280;70251;60.008;30.404;2023-08-17T08:01:37;101459.41;;;25.98;59.32
80837;BME280;70251;60.008;30.404;2023-08-17T08:04:05;101473.94;;;25.85;59.88
80837;BME280;70251;60.008;30.404;2023-08-17T08:06:32;101469.16;;;25.74;59.99
80837;BME280;70251;60.008;30.404;2023-08-17T08:08:57;101466.00;;;25.71;59.92
80837;BME280;70251;60.008;30.404;2023-08-17T08:11:23;101469.78;;;25.70;60.10
80837;BME280;70251;60.008;30.404;2023-08-17T08:13:49;101461.56;;;25.76;60.05
80837;BME280;70251;60.008;30.404;2023-08-17T08:16:14;101466.31;;;25.94;59.77
80837;BME280;70251;60.008;30.404;2023-08-17T08:18:40;101467.53;;;26.11;59.51
80837;BME280;70251;60.008;30.404;2023-08-17T08:21:05;101464.38;;;26.14;59.21
80837;BME280;70251;60.008;30.404;2023-08-17T08:23:31;101464.78;;;26.17;59.12
80837;BME280;70251;60.008;30.404;2023-08-17T08:25:56;101469.59;;;26.22;59.01
80837;BME280;70251;60.008;30.404;2023-08-17T08:28:24;101464.25;;;26.40;59.30
80837;BME280;70251;60.008;30.404;2023-08-17T08:30:50;101482.53;;;26.46;58.93
80837;BME280;70251;60.008;30.404;2023-08-17T08:33:16;101473.72;;;26.38;58.26
80837;BME280;70251;60.008;30.404;2023-08-17T08:35:42;101476.28;;;26.33;58.74
80837;BME280;70251;60.008;30.404;2023-08-17T08:38:07;101482.41;;;26.28;58.85
80837;BME280;70251;60.008;30.404;2023-08-17T08:40:37;101482.84;;;26.25;58.52
80837;BME280;70251;60.008;30.404;2023-08-17T08:43:02;101480.59;;;26.09;58.87
80837;BME280;70251;60.008;30.404;2023-08-17T08:45:29;101488.00;;;26.02;59.44
80837;BME280;70251;60.008;30.404;2023-08-17T08:47:56;101483.59;;;25.94;59.24
80837;BME280;70251;60.008;30.404;2023-08-17T08:50:25;101481.47;;;25.96;59.65
80837;BME280;70251;60.008;30.404;2023-08-17T08:53:01;101477.44;;;26.05;59.52
80837;BME280;70251;60.008;30.404;2023-08-17T08:55:37;101487.69;;;26.30;59.19
80837;BME280;70251;60.008;30.404;2023-08-17T08:58:04;101483.06;;;26.61;58.90
80837;BME280;70251;60.008;30.404;2023-08-17T09:00:32;101475.56;;;26.81;57.79
80837;BME280;70251;60.008;30.404;2023-08-17T09:02:59;101475.84;;;26.73;57.03
80837;BME280;70251;60.008;30.404;2023-08-17T09:05:27;101490.19;;;26.62;57.29
80837;BME280;70251;60.008;30.404;2023-08-17T09:07:54;101482.53;;;26.46;57.96
80837;BME280;70251;60.008;30.404;2023-08-17T09:10:20;101484.69;;;26.38;57.80
80837;BME280;70251;60.008;30.404;2023-08-17T09:12:46;101483.84;;;26.37;58.04
80837;BME280;70251;60.008;30.404;2023-08-17T09:15:12;101483.53;;;26.52;57.86
80837;BME280;70251;60.008;30.404;2023-08-17T09:17:38;101491.22;;;26.74;57.20
80837;BME280;70251;60.008;30.404;2023-08-17T09:20:04;101493.19;;;26.92;56.66
80837;BME280;70251;60.008;30.404;2023-08-17T09:25:05;101496.03;;;26.79;56.55
80837;BME280;70251;60.008;30.404;2023-08-17T09:27:31;101497.84;;;26.54;56.49
80837;BME280;70251;60.008;30.404;2023-08-17T09:30:04;101498.56;;;26.43;56.36
80837;BME280;70251;60.008;30.404;2023-08-17T09:32:31;101493.31;;;26.35;56.91
80837;BME280;70251;60.008;30.404;2023-08-17T09:35:01;101500.84;;;26.46;56.56
80837;BME280;70251;60.008;30.404;2023-08-17T09:37:27;101500.41;;;26.49;56.95
80837;BME280;70251;60.008;30.404;2023-08-17T09:39:53;101494.28;;;26.53;56.47
80837;BME280;70251;60.008;30.404;2023-08-17T09:42:20;101499.16;;;26.82;56.33
80837;BME280;70251;60.008;30.404;2023-08-17T09:44:47;101503.88;;;27.25;55.86
80837;BME280;70251;60.008;30.404;2023-08-17T09:47:12;101502.06;;;27.61;54.94
80837;BME280;70251;60.008;30.404;2023-08-17T09:49:38;101513.59;;;27.70;54.01
80837;BME280;70251;60.008;30.404;2023-08-17T09:52:04;101512.88;;;27.56;53.60
80837;BME280;70251;60.008;30.404;2023-08-17T09:54:31;101513.50;;;27.34;54.30
80837;BME280;70251;60.008;30.404;2023-08-17T09:57:00;101515.28;;;27.22;54.18
80837;BME280;70251;60.008;30.404;2023-08-17T09:59:26;101506.72;;;27.12;54.69
80837;BME280;70251;60.008;30.404;2023-08-17T10:01:52;101515.41;;;27.09;54.43
80837;BME280;70251;60.008;30.404;2023-08-17T10:04:21;101522.59;;;27.03;54.22
80837;BME280;70251;60.008;30.404;2023-08-17T10:06:59;101524.97;;;27.00;54.68
80837;BME280;70251;60.008;30.404;2023-08-17T10:09:30;101527.47;;;27.01;54.86
80837;BME280;70251;60.008;30.404;2023-08-17T10:11:57;101526.09;;;27.17;54.93
80837;BME280;70251;60.008;30.404;2023-08-17T10:14:29;101529.25;;;27.45;55.05
80837;BME280;70251;60.008;30.404;2023-08-17T10:17:07;101517.50;;;27.56;54.56
80837;BME280;70251;60.008;30.404;2023-08-17T10:22:19;101522.91;;;27.87;53.81
80837;BME280;70251;60.008;30.404;2023-08-17T10:24:46;101522.28;;;27.85;53.43
80837;BME280;70251;60.008;30.404;2023-08-17T10:27:13;101528.44;;;27.81;53.39
80837;BME280;70251;60.008;30.404;2023-08-17T10:29:39;101524.84;;;27.62;53.50
80837;BME280;70251;60.008;30.404;2023-08-17T10:32:06;101532.38;;;27.48;54.08
80837;BME280;70251;60.008;30.404;2023-08-17T10:34:35;101533.22;;;27.49;54.24
80837;BME280;70251;60.008;30.404;2023-08-17T10:37:01;101528.34;;;27.69;54.50
80837;BME280;70251;60.008;30.404;2023-08-17T10:39:28;101533.03;;;28.23;53.53
80837;BME280;70251;60.008;30.404;2023-08-17T10:41:55;101526.34;;;28.67;52.68
80837;BME280;70251;60.008;30.404;2023-08-17T10:44:46;101531.22;;;29.06;52.09
80837;BME280;70251;60.008;30.404;2023-08-17T10:47:32;101522.19;;;29.29;51.14
80837;BME280;70251;60.008;30.404;2023-08-17T10:50:00;101518.75;;;29.22;50.97
80837;BME280;70251;60.008;30.404;2023-08-17T10:52:32;101518.38;;;29.18;51.10
80837;BME280;70251;60.008;30.404;2023-08-17T10:55:03;101533.56;;;29.21;50.74
80837;BME280;70251;60.008;30.404;2023-08-17T10:57:41;101549.03;;;29.03;50.84
80837;BME280;70251;60.008;30.404;2023-08-17T11:00:22;101519.88;;;29.02;50.41
80837;BME280;70251;60.008;30.404;2023-08-17T11:03:03;101527.34;;;29.25;50.70
80837;BME280;70251;60.008;30.404;2023-08-17T11:08:02;101518.50;;;28.82;51.42
80837;BME280;70251;60.008;30.404;2023-08-17T11:10:28;101515.91;;;28.87;51.64
80837;BME280;70251;60.008;30.404;2023-08-17T11:12:57;101512.69;;;28.90;51.40
80837;BME280;70251;60.008;30.404;2023-08-17T11:15:41;101513.34;;;28.74;51.17
80837;BME280;70251;60.008;30.404;2023-08-17T11:18:11;101516.44;;;28.48;51.99
80837;BME280;70251;60.008;30.404;2023-08-17T11:20:39;101517.72;;;28.15;52.62
80837;BME280;70251;60.008;30.404;2023-08-17T11:23:06;101525.47;;;27.82;53.26
80837;BME280;70251;60.008;30.404;2023-08-17T11:25:33;101531.41;;;27.61;53.21
80837;BME280;70251;60.008;30.404;2023-08-17T11:28:03;101524.81;;;27.44;53.74
80837;BME280;70251;60.008;30.404;2023-08-17T11:30:29;101518.72;;;27.42;53.74
80837;BME280;70251;60.008;30.404;2023-08-17T11:32:55;101528.47;;;27.38;54.39
80837;BME280;70251;60.008;30.404;2023-08-17T11:35:21;101532.56;;;27.22;54.24
80837;BME280;70251;60.008;30.404;2023-08-17T11:37:48;101518.81;;;27.04;54.97
80837;BME280;70251;60.008;30.404;2023-08-17T11:40:15;101535.91;;;27.00;55.22
80837;BME280;70251;60.008;30.404;2023-08-17T11:42:42;101526.47;;;26.96;55.35
80837;BME280;70251;60.008;30.404;2023-08-17T11:45:08;101524.16;;;26.92;55.67
80837;BME280;70251;60.008;30.404;2023-08-17T11:47:38;101531.22;;;27.07;55.82
80837;BME280;70251;60.008;30.404;2023-08-17T11:50:05;101535.06;;;27.24;55.71
80837;BME280;70251;60.008;30.404;2023-08-17T11:52:32;101534.47;;;27.22;55.45
80837;BME280;70251;60.008;30.404;2023-08-17T11:54:59;101547.53;;;27.20;55.42
80837;BME280;70251;60.008;30.404;2023-08-17T11:57:25;101544.00;;;27.19;55.80
80837;BME280;70251;60.008;30.404;2023-08-17T11:59:58;101543.84;;;27.32;55.45
80837;BME280;70251;60.008;30.404;2023-08-17T12:02:25;101551.88;;;27.34;55.11
80837;BME280;70251;60.008;30.404;2023-08-17T12:04:51;101549.19;;;27.52;54.97
80837;BME280;70251;60.008;30.404;2023-08-17T12:07:18;101557.63;;;27.75;55.05
80837;BME280;70251;60.008;30.404;2023-08-17T12:09:45;101554.44;;;27.96;54.53
80837;BME280;70251;60.008;30.404;2023-08-17T12:12:11;101550.97;;;28.25;53.60
80837;BME280;70251;60.008;30.404;2023-08-17T12:14:41;101541.84;;;28.61;53.06
80837;BME280;70251;60.008;30.404;2023-08-17T12:17:06;101538.25;;;28.90;52.79
80837;BME280;70251;60.008;30.404;2023-08-17T12:19:32;101544.13;;;29.05;52.27
80837;BME280;70251;60.008;30.404;2023-08-17T12:21:57;101559.16;;;28.91;51.67
80837;BME280;70251;60.008;30.404;2023-08-17T12:24:24;101550.25;;;28.78;52.04
80837;BME280;70251;60.008;30.404;2023-08-17T12:26:50;101562.81;;;28.56;51.94
80837;BME280;70251;60.008;30.404;2023-08-17T12:29:15;101552.75;;;28.50;52.46
80837;BME280;70251;60.008;30.404;2023-08-17T12:31:41;101561.88;;;28.32;52.37
80837;BME280;70251;60.008;30.404;2023-08-17T12:34:06;101563.59;;;28.26;52.13
80837;BME280;70251;60.008;30.404;2023-08-17T12:36:32;101567.59;;;28.12;52.51
80837;BME280;70251;60.008;30.404;2023-08-17T12:38:58;101559.00;;;27.84;52.59
80837;BME280;70251;60.008;30.404;2023-08-17T12:41:23;101560.75;;;27.79;52.79
80837;BME280;70251;60.008;30.404;2023-08-17T12:43:49;101559.31;;;27.94;52.78
80837;BME280;70251;60.008;30.404;2023-08-17T12:46:15;101565.09;;;27.68;53.18
80837;BME280;70251;60.008;30.404;2023-08-17T12:48:41;101563.88;;;27.64;53.47